createdAt,value
2023-07-24T00:01:55.292Z,9.13
2023-07-24T00:04:22.353Z,9.70
2023-07-24T00:06:49.484Z,9.30
2023-07-24T00:09:16.583Z,9.80
2023-07-24T00:11:43.533Z,9.32
2023-07-24T00:14:10.568Z,9.15
2023-07-24T00:16:37.525Z,9.77
2023-07-24T00:19:04.604Z,9.45
2023-07-24T00:21:31.544Z,9.45
2023-07-24T00:23:58.543Z,9.43
2023-07-24T00:26:25.617Z,8.90
2023-07-24T00:28:52.733Z,9.25
2023-07-24T00:31:21.122Z,8.90
2023-07-24T00:33:48.162Z,9.30
2023-07-24T00:36:15.325Z,9.65
2023-07-24T00:38:42.312Z,9.40
2023-07-24T00:41:09.279Z,8.73
2023-07-24T00:43:36.650Z,9.00
2023-07-24T00:46:04.855Z,8.57
2023-07-24T00:48:31.913Z,8.38
2023-07-24T00:50:58.935Z,9.10
2023-07-24T00:53:25.924Z,8.07
2023-07-24T00:55:53.021Z,9.55
2023-07-24T00:58:22.553Z,8.93
2023-07-24T01:00:51.185Z,9.63
2023-07-24T01:03:18.425Z,9.50
2023-07-24T01:05:45.439Z,8.90
2023-07-24T01:08:12.923Z,8.43
2023-07-24T01:10:39.907Z,8.30
2023-07-24T01:13:21.491Z,9.02
2023-07-24T01:16:01.831Z,9.00
2023-07-24T01:18:31.647Z,9.60
2023-07-24T01:20:59.827Z,9.00
2023-07-24T01:24:09.824Z,9.05
2023-07-24T01:26:37.204Z,10.18
2023-07-24T01:29:04.244Z,9.45
2023-07-24T01:31:31.189Z,9.75
2023-07-24T01:33:58.608Z,9.45
2023-07-24T01:36:25.678Z,9.07
2023-07-24T01:38:53.192Z,9.35
2023-07-24T01:41:20.747Z,9.15
2023-07-24T01:43:48.451Z,9.30
2023-07-24T01:46:15.605Z,8.50
2023-07-24T01:48:56.944Z,8.90
2023-07-24T01:51:39.735Z,8.85
2023-07-24T01:54:08.057Z,8.70
2023-07-24T01:56:40.953Z,9.55
2023-07-24T01:59:15.984Z,8.75
2023-07-24T02:01:48.863Z,8.32
2023-07-24T02:04:18.334Z,9.00
2023-07-24T02:06:57.547Z,9.20
2023-07-24T02:09:32.819Z,9.15
2023-07-24T02:19:20.589Z,9.15
2023-07-24T02:21:54.517Z,9.20
2023-07-24T02:24:22.751Z,9.57
2023-07-24T02:26:52.486Z,9.52
2023-07-24T02:29:20.669Z,9.27
2023-07-24T02:31:58.262Z,9.63
2023-07-24T02:34:45.835Z,8.90
2023-07-24T02:37:15.083Z,9.00
2023-07-24T02:39:51.246Z,8.68
2023-07-24T02:42:22.652Z,9.35
2023-07-24T02:44:55.437Z,9.18
2023-07-24T02:47:29.318Z,9.38
2023-07-24T02:50:17.199Z,8.90
2023-07-24T02:52:49.477Z,8.68
2023-07-24T02:55:21.827Z,9.02
2023-07-24T02:57:57.273Z,9.15
2023-07-24T03:00:33.970Z,9.35
2023-07-24T03:03:06.632Z,9.32
2023-07-24T03:05:38.118Z,8.82
2023-07-24T03:08:13.334Z,9.25
2023-07-24T03:10:47.180Z,9.13
2023-07-24T03:13:26.344Z,9.07
2023-07-24T03:16:02.765Z,8.63
2023-07-24T03:18:38.899Z,9.38
2023-07-24T03:21:32.979Z,9.07
2023-07-24T03:24:02.671Z,9.00
2023-07-24T03:26:35.682Z,9.23
2023-07-24T03:29:14.240Z,9.02
2023-07-24T03:31:41.330Z,9.32
2023-07-24T03:34:08.354Z,9.30
2023-07-24T03:36:36.890Z,9.15
2023-07-24T03:39:05.010Z,9.90
2023-07-24T03:41:32.033Z,9.50
2023-07-24T03:43:59.219Z,9.48
2023-07-24T03:46:26.830Z,9.13
2023-07-24T03:48:53.952Z,8.75
2023-07-24T03:51:20.889Z,9.45
2023-07-24T03:53:48.081Z,9.60
2023-07-24T03:56:15.171Z,9.43
2023-07-24T03:58:42.158Z,9.75
2023-07-24T04:01:12.566Z,9.52
2023-07-24T04:03:39.847Z,9.43
2023-07-24T04:06:06.917Z,9.63
2023-07-24T04:08:33.883Z,9.82
2023-07-24T04:11:00.887Z,9.20
2023-07-24T04:13:28.016Z,9.15
2023-07-24T04:15:55.094Z,9.68
2023-07-24T04:18:22.192Z,8.95
2023-07-24T04:20:49.190Z,9.13
2023-07-24T04:23:16.337Z,10.07
2023-07-24T04:25:43.498Z,9.18
2023-07-24T04:28:10.486Z,9.75
2023-07-24T04:30:37.540Z,10.27
2023-07-24T04:33:07.861Z,8.93
2023-07-24T04:35:34.959Z,10.57
2023-07-24T04:38:02.359Z,9.77
2023-07-24T04:40:29.441Z,9.40
2023-07-24T04:42:56.998Z,11.38
2023-07-24T04:45:24.408Z,9.57
2023-07-24T04:47:51.389Z,9.93
2023-07-24T04:50:18.548Z,9.50
2023-07-24T04:52:45.499Z,9.68
2023-07-24T04:55:12.514Z,9.48
2023-07-24T04:57:39.462Z,8.95
2023-07-24T05:00:07.296Z,9.65
2023-07-24T05:02:34.502Z,8.68
2023-07-24T05:05:01.648Z,7.90
2023-07-24T05:07:32.323Z,7.82
2023-07-24T05:10:00.345Z,7.95
2023-07-24T05:12:27.575Z,6.65
2023-07-24T05:14:54.638Z,6.85
2023-07-24T05:17:22.908Z,7.22
2023-07-24T05:19:49.993Z,7.68
2023-07-24T05:22:17.020Z,6.97
2023-07-24T05:24:44.166Z,6.75
2023-07-24T05:27:11.163Z,7.10
2023-07-24T05:29:38.105Z,8.10
2023-07-24T05:32:05.653Z,8.13
2023-07-24T05:34:32.681Z,8.73
2023-07-24T05:36:59.714Z,7.80
2023-07-24T05:39:26.703Z,7.95
2023-07-24T05:41:53.780Z,7.57
2023-07-24T05:44:20.901Z,7.30
2023-07-24T05:46:47.964Z,7.65
2023-07-24T05:49:17.689Z,7.40
2023-07-24T05:51:47.487Z,7.55
2023-07-24T05:54:18.499Z,7.47
2023-07-24T05:56:47.621Z,7.57
2023-07-24T05:59:16.534Z,6.63
2023-07-24T06:01:54.584Z,7.27
2023-07-24T06:04:29.898Z,7.15
2023-07-24T06:06:58.080Z,7.18
2023-07-24T06:09:28.875Z,6.15
2023-07-24T06:11:56.879Z,6.07
2023-07-24T06:14:28.206Z,5.88
2023-07-24T06:17:03.564Z,5.78
2023-07-24T06:19:42.233Z,5.88
2023-07-24T06:22:12.408Z,5.90
2023-07-24T06:24:41.624Z,5.40
2023-07-24T06:27:11.461Z,5.15
2023-07-24T06:29:45.291Z,4.60
2023-07-24T06:32:19.019Z,4.78
2023-07-24T06:34:46.751Z,4.97
2023-07-24T06:37:23.192Z,5.05
2023-07-24T06:39:52.243Z,5.30
2023-07-24T06:42:20.252Z,5.10
2023-07-24T06:44:48.333Z,4.85
2023-07-24T06:47:21.288Z,4.80
2023-07-24T07:03:53.315Z,4.93
2023-07-24T07:42:18.227Z,6.43
2023-07-24T07:44:46.809Z,6.23
2023-07-24T07:47:13.756Z,6.57
2023-07-24T07:49:42.164Z,6.53
2023-07-24T07:52:09.118Z,7.03
2023-07-24T07:54:36.054Z,6.70
2023-07-24T07:57:02.939Z,6.78
2023-07-24T07:59:29.739Z,7.00
2023-07-24T08:01:56.608Z,6.80
2023-07-24T08:04:23.400Z,6.55
2023-07-24T08:06:50.202Z,7.30
2023-07-24T08:09:18.665Z,6.88
2023-07-24T08:11:45.562Z,7.22
2023-07-24T08:14:12.479Z,6.82
2023-07-24T08:16:39.481Z,7.35
2023-07-24T08:19:06.401Z,7.25
2023-07-24T08:21:33.261Z,6.82
2023-07-24T08:24:01.186Z,7.10
2023-07-24T08:26:28.565Z,6.68
2023-07-24T08:28:55.777Z,7.50
2023-07-24T08:31:24.841Z,7.75
2023-07-24T08:33:51.986Z,7.00
2023-07-24T08:36:18.779Z,7.40
2023-07-24T08:38:45.674Z,7.57
2023-07-24T08:41:14.446Z,7.50
2023-07-24T08:43:44.504Z,7.05
2023-07-24T08:46:11.571Z,7.05
2023-07-24T08:48:40.338Z,11.00
2023-07-24T08:51:10.020Z,9.93
2023-07-24T08:53:39.739Z,9.07
2023-07-24T08:56:08.224Z,7.43
2023-07-24T08:58:35.849Z,7.80
2023-07-24T09:01:05.237Z,8.13
2023-07-24T09:03:33.459Z,8.48
2023-07-24T09:06:05.217Z,8.32
2023-07-24T09:08:40.445Z,7.60
2023-07-24T09:11:09.110Z,8.00
2023-07-24T09:13:43.019Z,7.78
2023-07-24T09:16:10.261Z,9.60
2023-07-24T09:18:44.460Z,9.13
2023-07-24T09:21:14.757Z,15.52
2023-07-24T09:23:44.863Z,7.55
2023-07-24T09:26:11.747Z,6.68
2023-07-24T09:28:38.995Z,3.97
2023-07-24T09:31:06.193Z,3.70
2023-07-24T09:33:42.589Z,2.30
2023-07-24T09:36:10.104Z,2.00
2023-07-24T09:38:38.089Z,2.00
2023-07-24T09:41:06.706Z,1.70
2023-07-24T09:46:07.416Z,1.65
2023-07-24T09:51:05.878Z,1.73
2023-07-24T09:53:45.365Z,1.60
2023-07-24T09:56:12.538Z,14.82
2023-07-24T09:58:40.533Z,9.07
2023-07-24T10:01:09.454Z,5.50
2023-07-24T10:03:42.854Z,2.30
2023-07-24T10:06:15.960Z,2.13
2023-07-24T10:08:43.538Z,2.10
2023-07-24T10:11:13.635Z,3.50
2023-07-24T10:13:41.731Z,3.90
2023-07-24T10:16:09.178Z,3.40
2023-07-24T10:18:42.696Z,3.72
2023-07-24T10:21:11.700Z,3.50
2023-07-24T10:23:43.413Z,3.10
2023-07-24T10:26:11.082Z,3.70
2023-07-24T10:28:42.325Z,4.45
2023-07-24T10:31:21.735Z,4.77
2023-07-24T10:33:49.554Z,4.50
2023-07-24T10:36:23.949Z,4.28
2023-07-24T10:38:55.160Z,4.90
2023-07-24T10:41:22.236Z,4.20
2023-07-24T10:43:52.840Z,5.05
2023-07-24T10:46:21.802Z,4.20
2023-07-24T10:48:51.320Z,4.82
2023-07-24T10:51:18.403Z,4.63
2023-07-24T10:53:48.036Z,4.32
2023-07-24T10:56:16.675Z,4.63
2023-07-24T10:58:43.970Z,4.80
2023-07-24T11:01:15.478Z,4.45
2023-07-24T11:03:43.773Z,4.17
2023-07-24T11:06:21.213Z,3.10
2023-07-24T11:08:57.290Z,3.60
2023-07-24T11:11:36.665Z,3.20
2023-07-24T11:14:04.985Z,3.25
2023-07-24T11:16:34.421Z,3.17
2023-07-24T11:19:01.983Z,3.55
2023-07-24T11:21:30.677Z,3.63
2023-07-24T11:23:58.533Z,3.88
2023-07-24T11:26:27.146Z,3.80
2023-07-24T11:28:54.940Z,4.07
2023-07-24T11:31:26.097Z,4.00
2023-07-24T11:33:54.221Z,4.03
2023-07-24T11:36:21.403Z,4.05
2023-07-24T11:38:49.295Z,4.32
2023-07-24T11:41:18.709Z,3.58
2023-07-24T11:43:51.571Z,3.83
2023-07-24T11:46:30.233Z,3.42
2023-07-24T11:48:59.207Z,4.10
2023-07-24T11:51:28.759Z,5.05
2023-07-24T11:54:10.488Z,3.85
2023-07-24T11:56:37.599Z,3.97
2023-07-24T11:59:15.336Z,4.45
2023-07-24T12:01:46.592Z,3.88
2023-07-24T12:04:14.717Z,3.95
2023-07-24T12:06:41.901Z,4.13
2023-07-24T12:09:09.443Z,3.78
2023-07-24T12:11:46.659Z,3.83
2023-07-24T12:14:16.057Z,3.90
2023-07-24T12:16:43.399Z,4.28
2023-07-24T12:19:10.467Z,3.83
2023-07-24T12:21:37.473Z,4.20
2023-07-24T12:24:04.722Z,3.95
2023-07-24T12:26:31.713Z,7.38
2023-07-24T12:29:00.637Z,3.78
2023-07-24T12:31:28.034Z,3.65
2023-07-24T12:33:55.185Z,3.90
2023-07-24T12:36:22.163Z,3.95
2023-07-24T12:38:49.992Z,4.50
2023-07-24T12:41:16.970Z,3.83
2023-07-24T12:43:45.298Z,4.00
2023-07-24T12:46:12.424Z,3.95
2023-07-24T12:48:39.570Z,3.80
2023-07-24T12:51:06.655Z,4.13
2023-07-24T12:53:37.754Z,3.70
2023-07-24T12:56:14.756Z,3.80
2023-07-24T12:58:41.731Z,3.72
2023-07-24T13:01:09.196Z,4.00
2023-07-24T13:03:36.530Z,4.10
2023-07-24T13:06:03.707Z,3.75
2023-07-24T13:08:30.714Z,4.13
2023-07-24T13:10:57.801Z,4.35
2023-07-24T13:13:24.886Z,4.22
2023-07-24T13:15:51.885Z,4.63
2023-07-24T13:18:28.533Z,5.05
2023-07-24T13:20:57.305Z,5.13
2023-07-24T13:23:24.441Z,5.97
2023-07-24T13:25:56.379Z,6.03
2023-07-24T13:28:23.618Z,7.03
2023-07-24T13:30:50.604Z,6.68
2023-07-24T13:33:17.583Z,7.00
2023-07-24T13:35:44.641Z,7.80
2023-07-24T13:38:12.466Z,6.80
2023-07-24T13:40:39.495Z,8.05
2023-07-24T13:43:06.725Z,7.90
2023-07-24T13:45:33.687Z,7.47
2023-07-24T13:48:00.876Z,8.27
2023-07-24T13:50:28.183Z,7.40
2023-07-24T13:52:55.148Z,7.80
2023-07-24T13:55:22.239Z,6.80
2023-07-24T13:57:49.196Z,7.70
2023-07-24T14:00:16.670Z,7.68
2023-07-24T14:02:43.686Z,6.47
2023-07-24T14:05:10.860Z,7.90
2023-07-24T14:07:37.907Z,6.75
2023-07-24T14:10:05.269Z,6.88
2023-07-24T14:12:32.423Z,6.07
2023-07-24T14:14:59.461Z,6.95
2023-07-24T14:17:26.544Z,5.90
2023-07-24T14:19:53.518Z,7.53
2023-07-24T14:22:20.531Z,6.60
2023-07-24T14:24:48.009Z,6.15
2023-07-24T14:27:15.608Z,6.38
2023-07-24T14:29:42.541Z,6.15
2023-07-24T14:32:09.704Z,6.40
2023-07-24T14:34:36.688Z,6.63
2023-07-24T14:37:03.825Z,5.93
2023-07-24T14:39:30.819Z,6.95
2023-07-24T14:41:57.805Z,5.78
2023-07-24T14:44:24.853Z,5.75
2023-07-24T14:46:51.923Z,5.50
2023-07-24T14:49:18.904Z,5.55
2023-07-24T14:51:46.042Z,5.40
2023-07-24T14:54:13.073Z,5.15
2023-07-24T14:56:52.104Z,5.68
2023-07-24T14:59:24.313Z,5.05
2023-07-24T15:01:51.387Z,4.95
2023-07-24T15:04:18.401Z,4.90
2023-07-24T15:06:45.606Z,5.10
2023-07-24T15:09:12.690Z,5.05
2023-07-24T15:11:39.714Z,5.18
2023-07-24T15:14:06.767Z,4.78
2023-07-24T15:16:34.930Z,5.00
2023-07-24T15:19:01.938Z,4.82
2023-07-24T15:21:29.275Z,4.50
2023-07-24T15:23:56.347Z,4.63
2023-07-24T15:26:23.290Z,4.38
2023-07-24T15:28:50.496Z,4.13
2023-07-24T15:31:17.570Z,4.80
2023-07-24T15:33:44.627Z,4.25
2023-07-24T15:36:11.718Z,4.43
2023-07-24T15:38:38.673Z,4.30
2023-07-24T15:41:05.665Z,3.85
2023-07-24T15:43:33.243Z,4.40
2023-07-24T15:46:00.394Z,4.30
2023-07-24T15:48:27.395Z,4.40
2023-07-24T15:50:54.506Z,4.35
2023-07-24T15:53:21.513Z,4.45
2023-07-24T15:55:48.406Z,4.38
2023-07-24T15:58:15.415Z,4.40
2023-07-24T16:00:42.493Z,4.40
2023-07-24T16:03:09.663Z,4.47
2023-07-24T16:05:36.761Z,4.63
2023-07-24T16:08:03.921Z,4.47
2023-07-24T16:10:32.394Z,4.65
2023-07-24T16:12:59.457Z,4.70
2023-07-24T16:20:26.249Z,4.90
2023-07-24T16:22:53.223Z,4.57
2023-07-24T16:25:20.296Z,4.50
2023-07-24T16:27:47.324Z,4.43
2023-07-24T16:32:49.411Z,4.25
2023-07-24T16:35:21.731Z,5.10
2023-07-24T16:37:55.571Z,5.10
2023-07-24T16:40:22.937Z,4.30
2023-07-24T16:42:51.642Z,4.57
2023-07-24T16:47:53.267Z,4.35
2023-07-24T16:50:20.338Z,4.65
2023-07-24T16:52:47.317Z,4.00
2023-07-24T16:55:15.119Z,4.22
2023-07-24T16:57:42.173Z,4.10
2023-07-24T17:00:09.733Z,4.28
2023-07-24T17:02:38.386Z,4.43
2023-07-24T17:05:05.836Z,4.57
2023-07-24T17:07:32.952Z,3.83
2023-07-24T17:09:59.915Z,4.32
2023-07-24T17:12:26.878Z,4.93
2023-07-24T17:14:53.897Z,4.70
2023-07-24T17:17:20.918Z,4.30
2023-07-24T17:19:48.012Z,4.05
2023-07-24T17:22:15.084Z,3.92
2023-07-24T17:24:42.076Z,4.32
2023-07-24T17:27:12.221Z,4.18
2023-07-24T17:29:39.207Z,4.15
2023-07-24T17:32:06.662Z,3.85
2023-07-24T17:34:33.616Z,4.00
2023-07-24T17:37:00.590Z,3.85
2023-07-24T17:39:27.820Z,3.95
2023-07-24T17:41:54.890Z,4.85
2023-07-24T17:44:21.841Z,3.83
2023-07-24T17:46:48.805Z,4.18
2023-07-24T17:49:15.834Z,4.18
2023-07-24T17:51:42.996Z,4.32
2023-07-24T17:54:09.949Z,4.57
2023-07-24T17:56:36.954Z,4.30
2023-07-24T17:59:03.932Z,4.10
2023-07-24T18:01:31.157Z,4.60
2023-07-24T18:03:58.388Z,4.30
2023-07-24T18:06:25.443Z,4.20
2023-07-24T18:08:52.382Z,4.60
2023-07-24T18:11:19.427Z,4.40
2023-07-24T18:13:46.346Z,4.07
2023-07-24T18:16:13.957Z,4.22
2023-07-24T18:18:40.913Z,4.80
2023-07-24T18:21:09.080Z,4.60
2023-07-24T18:23:36.238Z,4.50
2023-07-24T18:26:03.285Z,4.60
2023-07-24T18:28:30.240Z,4.50
2023-07-24T18:30:57.221Z,4.68
2023-07-24T18:33:24.160Z,4.60
2023-07-24T18:35:54.299Z,4.82
2023-07-24T18:38:21.806Z,4.80
2023-07-24T18:40:48.908Z,4.57
2023-07-24T18:43:16.217Z,4.32
2023-07-24T18:45:43.304Z,4.53
2023-07-24T18:48:12.360Z,4.30
2023-07-24T18:50:39.342Z,4.45
2023-07-24T18:53:06.651Z,4.75
2023-07-24T18:55:33.956Z,4.35
2023-07-24T18:58:00.906Z,4.88
2023-07-24T19:00:27.842Z,4.57
2023-07-24T19:02:54.818Z,4.47
2023-07-24T19:05:21.808Z,4.20
2023-07-24T19:07:48.798Z,4.90
2023-07-24T19:10:15.819Z,4.53
2023-07-24T19:12:42.832Z,4.60
2023-07-24T19:15:10.385Z,4.50
2023-07-24T19:17:41.501Z,4.78
2023-07-24T19:20:10.570Z,4.32
2023-07-24T19:22:38.429Z,4.55
2023-07-24T19:25:06.636Z,4.80
2023-07-24T19:27:34.170Z,4.60
2023-07-24T19:30:03.881Z,4.63
2023-07-24T19:32:31.283Z,4.35
2023-07-24T19:34:58.349Z,4.35
2023-07-24T19:37:25.297Z,4.15
2023-07-24T19:39:52.474Z,4.55
2023-07-24T19:42:19.631Z,4.15
2023-07-24T19:44:46.578Z,3.90
2023-07-24T19:47:13.518Z,3.90
2023-07-24T19:49:41.597Z,4.57
2023-07-24T19:52:08.922Z,4.53
2023-07-24T19:54:36.005Z,4.15
2023-07-24T19:57:03.043Z,4.22
2023-07-24T19:59:30.020Z,4.32
2023-07-24T20:01:57.409Z,4.00
2023-07-24T20:04:24.636Z,4.43
2023-07-24T20:06:52.720Z,4.60
2023-07-24T20:09:19.889Z,4.20
2023-07-24T20:11:49.096Z,4.10
2023-07-24T20:14:19.570Z,4.18
2023-07-24T20:16:46.528Z,4.32
2023-07-24T20:19:13.490Z,4.50
2023-07-24T20:21:42.409Z,4.93
2023-07-24T20:24:13.760Z,4.30
2023-07-24T20:26:41.104Z,4.27
2023-07-24T20:29:08.451Z,4.70
2023-07-24T20:31:35.644Z,4.47
2023-07-24T20:34:02.775Z,4.93
2023-07-24T20:36:29.799Z,5.00
2023-07-24T20:38:56.739Z,4.43
2023-07-24T20:41:23.864Z,4.45
2023-07-24T20:43:51.987Z,4.13
2023-07-24T20:46:20.008Z,3.75
2023-07-24T20:48:47.033Z,3.83
2023-07-24T20:51:22.114Z,3.35
2023-07-24T20:53:49.766Z,3.88
2023-07-24T20:56:18.682Z,3.80
2023-07-24T20:58:45.764Z,3.97
2023-07-24T21:01:12.927Z,3.47
2023-07-24T21:03:40.051Z,3.53
2023-07-24T21:06:07.016Z,3.80
2023-07-24T21:08:33.959Z,4.18
2023-07-24T21:11:00.861Z,3.70
2023-07-24T21:13:28.143Z,3.35
2023-07-24T21:15:55.700Z,3.78
2023-07-24T21:18:22.906Z,3.90
2023-07-24T21:20:49.865Z,3.65
2023-07-24T21:23:16.905Z,3.85
2023-07-24T21:25:54.159Z,3.45
2023-07-24T21:28:22.367Z,3.60
2023-07-24T21:30:49.936Z,3.30
2023-07-24T21:33:17.527Z,3.70
2023-07-24T21:35:44.535Z,3.55
2023-07-24T21:38:13.400Z,3.72
2023-07-24T21:40:41.707Z,3.33
2023-07-24T21:43:08.893Z,3.28
2023-07-24T21:45:36.103Z,3.10
2023-07-24T21:48:05.928Z,3.58
2023-07-24T21:50:33.173Z,3.55
2023-07-24T21:53:00.382Z,3.40
2023-07-24T21:55:27.404Z,3.35
2023-07-24T21:57:56.112Z,3.00
2023-07-24T22:00:25.144Z,3.25
2023-07-24T22:02:52.576Z,3.60
2023-07-24T22:05:19.721Z,3.40
2023-07-24T22:07:46.715Z,3.10
2023-07-24T22:10:13.717Z,3.30
2023-07-24T22:12:40.741Z,2.92
2023-07-24T22:15:08.385Z,3.20
2023-07-24T22:17:35.437Z,3.20
2023-07-24T22:20:04.600Z,3.05
2023-07-24T22:22:31.782Z,3.03
2023-07-24T22:24:58.794Z,2.78
2023-07-24T22:27:27.086Z,3.10
2023-07-24T22:29:54.976Z,2.95
2023-07-24T22:32:22.391Z,3.38
2023-07-24T22:34:50.605Z,3.00
2023-07-24T22:37:18.404Z,3.00
2023-07-24T22:39:45.744Z,2.83
2023-07-24T22:42:12.917Z,3.00
2023-07-24T22:44:40.027Z,2.85
2023-07-24T22:47:07.132Z,2.97
2023-07-24T22:49:34.146Z,2.72
2023-07-24T22:52:01.121Z,3.25
2023-07-24T22:54:28.136Z,2.78
2023-07-24T22:56:55.125Z,2.97
2023-07-24T22:59:26.008Z,2.97
2023-07-24T23:01:55.017Z,3.13
2023-07-24T23:04:25.268Z,2.83
2023-07-24T23:06:54.184Z,2.80
2023-07-24T23:09:24.572Z,2.80
2023-07-24T23:11:51.529Z,3.03
2023-07-24T23:14:18.557Z,3.00
2023-07-24T23:16:45.524Z,3.10
2023-07-24T23:19:12.519Z,2.97
2023-07-24T23:21:39.443Z,3.17
2023-07-24T23:24:06.902Z,2.97
2023-07-24T23:26:33.905Z,3.00
2023-07-24T23:29:00.961Z,3.17
2023-07-24T23:31:28.053Z,2.90
2023-07-24T23:33:55.156Z,2.72
2023-07-24T23:36:22.769Z,2.72
2023-07-24T23:38:49.854Z,2.72
2023-07-24T23:41:16.863Z,2.75
2023-07-24T23:43:43.870Z,2.67
2023-07-24T23:46:12.643Z,2.95
2023-07-24T23:48:40.735Z,2.88
2023-07-24T23:51:21.224Z,2.72
2023-07-24T23:53:49.347Z,2.90
2023-07-24T23:56:16.486Z,2.80
2023-07-24T23:58:44.665Z,2.83
